TimeMST,TemperatureF,Dew PointF,Humidity,Sea Level PressureIn,VisibilityMPH,Wind Direction,Wind SpeedMPH,Gust SpeedMPH,PrecipitationIn,Events,Conditions,WindDirDegrees,DateUTC
12:56 AM,69.1,37.9,32,29.96,10.0,Calm,Calm,-,N/A,,Clear,0,2012-09-23 07:56:00
1:56 AM,68.0,37.9,33,29.96,10.0,SSW,6.9,-,N/A,,Clear,200,2012-09-23 08:56:00
2:56 AM,66.9,37.9,34,29.96,10.0,SSW,6.9,-,N/A,,Clear,210,2012-09-23 09:56:00
3:56 AM,64.0,37.9,38,29.97,10.0,Calm,Calm,-,N/A,,Clear,0,2012-09-23 10:56:00
4:56 AM,64.9,34.0,32,29.99,10.0,WNW,3.5,-,N/A,,Clear,300,2012-09-23 11:56:00
5:56 AM,66.0,35.1,32,30.02,10.0,Calm,Calm,-,N/A,,Clear,0,2012-09-23 12:56:00
6:56 AM,68.0,37.0,32,30.04,10.0,NW,4.6,-,N/A,,Clear,320,2012-09-23 13:56:00
7:56 AM,71.1,39.0,31,30.05,10.0,Calm,Calm,-,N/A,,Clear,0,2012-09-23 14:56:00
8:56 AM,80.1,39.0,23,30.05,10.0,Variable,3.5,-,N/A,,Clear,0,2012-09-23 15:56:00
9:56 AM,82.9,37.0,19,30.04,10.0,NW,5.8,-,N/A,,Clear,320,2012-09-23 16:56:00
10:56 AM,88.0,28.0,12,30.03,10.0,SE,5.8,-,N/A,,Clear,130,2012-09-23 17:56:00
11:56 AM,89.1,28.0,11,30.01,10.0,East,9.2,-,N/A,,Clear,90,2012-09-23 18:56:00
12:46 PM,89.6,28.4,11,30.20,10.0,SE,9.2,18.4,N/A,,Clear,130,2012-09-23 19:46:00
12:56 PM,91.0,30.9,12,29.99,10.0,SE,11.5,-,N/A,,Clear,130,2012-09-23 19:56:00
1:56 PM,89.1,28.9,12,29.98,10.0,South,9.2,-,N/A,,Clear,190,2012-09-23 20:56:00
2:56 PM,88.0,28.9,12,29.96,10.0,Calm,Calm,-,N/A,,Clear,0,2012-09-23 21:56:00
3:56 PM,89.1,28.9,12,29.96,10.0,SSW,5.8,-,N/A,,Clear,200,2012-09-23 22:56:00
4:56 PM,88.0,28.0,12,29.96,10.0,SE,6.9,-,N/A,,Clear,130,2012-09-23 23:56:00
5:56 PM,82.0,30.9,16,29.98,10.0,South,6.9,-,N/A,,Clear,190,2012-09-24 00:56:00
6:56 PM,77.0,30.9,19,29.99,10.0,SW,10.4,-,N/A,,Clear,220,2012-09-24 01:56:00
7:56 PM,77.0,28.0,17,29.99,10.0,SW,11.5,-,N/A,,Clear,220,2012-09-24 02:56:00
8:56 PM,75.9,28.0,17,29.98,10.0,SW,11.5,-,N/A,,Clear,220,2012-09-24 03:56:00
9:56 PM,75.0,35.1,23,29.98,10.0,West,13.8,-,N/A,,Clear,260,2012-09-24 04:56:00
10:56 PM,72.0,37.9,29,29.98,10.0,WSW,11.5,-,N/A,,Clear,250,2012-09-24 05:56:00
11:56 PM,73.0,37.9,28,29.98,10.0,West,6.9,-,N/A,,Clear,260,2012-09-24 06:56:00